Time;durP1;ratioP1;P1;durP2;ratioP2;P2;SDS_P1;SDS_P2;PMS_P1;PMS_P2;Temp;Humidity;BMP_temperature;BMP_pressure;BME280_temperature;BME280_humidity;BME280_pressure;Samples;Min_cycle;Max_cycle;Signal;HPM_P1;HPM_P2
2021/12/23 00:00:37;;;;;;;90.13;35.33;;;;;;;-3.62;78.69;101365.61;1715873;83;21122;-75
2021/12/23 00:03:06;;;;;;;75.03;32.77;;;;;;;-3.67;78.49;101361.59;1717128;83;21426;-70
2021/12/23 00:05:33;;;;;;;79.07;33.67;;;;;;;-3.73;78.66;101362.66;1715950;83;21083;-78
2021/12/23 00:08:00;;;;;;;73.57;31.73;;;;;;;-3.73;78.98;101361.38;1717184;83;21505;-72
2021/12/23 00:10:28;;;;;;;62.30;28.77;;;;;;;-3.67;79.27;101361.59;1715591;83;21039;-69
2021/12/23 00:12:55;;;;;;;60.73;29.63;;;;;;;-3.64;79.30;101353.14;1717132;83;21141;-75
2021/12/23 00:15:30;;;;;;;59.77;28.87;;;;;;;-3.65;79.43;101346.29;1745806;82;21466;-77
2021/12/23 00:25:52;;;;;;;61.03;28.80;;;;;;;-3.71;78.93;101336.70;1715589;83;21149;-69
2021/12/23 00:28:22;;;;;;;56.98;29.35;;;;;;;-3.68;79.21;101323.12;1717197;83;21036;-70
2021/12/23 00:30:49;;;;;;;55.50;26.47;;;;;;;-3.66;79.21;101327.48;1715864;83;21079;-80
2021/12/23 00:33:16;;;;;;;65.50;32.83;;;;;;;-3.72;78.86;101322.53;1717132;83;21072;-69
2021/12/23 00:35:43;;;;;;;61.60;29.50;;;;;;;-3.74;79.13;101322.88;1715788;83;21036;-71
2021/12/23 00:38:18;;;;;;;54.73;26.40;;;;;;;-3.72;79.24;101325.96;1717187;83;21289;-69
2021/12/23 00:40:39;;;;;;;48.83;25.90;;;;;;;-3.78;78.64;101317.20;1714306;83;21569;-70
2021/12/23 00:43:05;;;;;;;73.47;31.40;;;;;;;-3.93;78.37;101320.09;1708781;83;21017;-70
2021/12/23 00:45:33;;;;;;;96.03;39.37;;;;;;;-3.99;78.43;101318.17;1694645;84;21030;-70
2021/12/23 00:48:00;;;;;;;59.77;26.20;;;;;;;-4.05;78.77;101309.86;1705206;84;21781;-70
2021/12/23 00:50:27;;;;;;;56.67;24.50;;;;;;;-4.10;78.36;101309.20;1705472;84;21134;-70
2021/12/23 00:52:57;;;;;;;56.73;25.93;;;;;;;-4.19;78.34;101307.59;1705338;83;21002;-74
2021/12/23 00:55:24;;;;;;;62.97;28.87;;;;;;;-4.26;78.33;101311.62;1705568;83;21033;-70
2021/12/23 00:57:50;;;;;;;54.33;26.50;;;;;;;-4.34;78.29;101310.05;1705297;83;21574;-69
2021/12/23 01:00:21;;;;;;;55.83;26.90;;;;;;;-4.41;78.27;101307.19;1705520;84;21606;-69
2021/12/23 01:02:48;;;;;;;52.48;25.65;;;;;;;-4.45;78.29;101307.48;1705429;84;21937;-69
2021/12/23 01:05:22;;;;;;;57.03;26.77;;;;;;;-4.53;78.23;101303.34;1683781;84;20953;-69
2021/12/23 01:07:49;;;;;;;56.67;26.93;;;;;;;-4.60;78.27;101294.98;1705403;84;21096;-69
2021/12/23 01:10:18;;;;;;;53.83;27.30;;;;;;;-4.62;78.40;101297.02;1705620;84;21036;-69
2021/12/23 01:12:48;;;;;;;63.37;28.90;;;;;;;-4.68;78.36;101293.81;1705767;82;21534;-69
2021/12/23 01:17:56;;;;;;;61.70;27.57;;;;;;;-4.72;78.64;101290.65;1739943;81;20965;-81
2021/12/23 01:20:33;;;;;;;61.47;28.67;;;;;;;-4.71;79.00;101287.30;1759775;81;21305;-69
2021/12/23 01:23:08;;;;;;;61.03;29.40;;;;;;;-4.69;79.04;101280.95;1729385;83;21027;-69
2021/12/23 01:25:38;;;;;;;61.17;28.73;;;;;;;-4.68;79.19;101277.56;1759568;81;21024;-76
2021/12/23 01:28:07;;;;;;;55.60;26.20;;;;;;;-4.72;78.79;101277.45;1759743;81;21124;-70
2021/12/23 01:30:42;;;;;;;59.77;28.73;;;;;;;-4.78;78.70;101274.66;1748983;81;21022;-69
2021/12/23 01:33:10;;;;;;;58.87;27.53;;;;;;;-4.82;78.76;101265.52;1728545;83;20988;-70
2021/12/23 01:35:39;;;;;;;51.53;25.63;;;;;;;-4.82;79.02;101260.02;1743408;81;21278;-69
2021/12/23 01:38:07;;;;;;;54.67;27.17;;;;;;;-4.77;79.54;101258.48;1700565;84;20986;-69
2021/12/23 01:40:34;;;;;;;58.47;26.83;;;;;;;-4.73;79.31;101253.98;1729385;83;21055;-74
2021/12/23 01:43:03;;;;;;;54.10;26.43;;;;;;;-4.80;78.89;101248.14;1728659;82;21539;-70
2021/12/23 01:45:33;;;;;;;58.97;27.60;;;;;;;-4.83;78.98;101243.33;1727074;83;21043;-68
2021/12/23 01:48:03;;;;;;;53.40;26.30;;;;;;;-4.85;79.05;101235.99;1727189;83;21540;-69
2021/12/23 01:50:30;;;;;;;58.27;28.43;;;;;;;-4.86;79.21;101235.54;1727341;83;21086;-82
2021/12/23 01:52:59;;;;;;;58.70;29.20;;;;;;;-4.83;79.36;101235.24;1726965;83;21088;-69
2021/12/23 01:55:28;;;;;;;62.80;26.83;;;;;;;-4.86;79.19;101231.29;1727297;83;20928;-69
2021/12/23 01:57:57;;;;;;;60.57;27.87;;;;;;;-4.91;78.95;101220.42;1727092;83;21042;-69
2021/12/23 02:00:33;;;;;;;58.47;27.40;;;;;;;-4.89;79.15;101226.47;1727383;83;21035;-70
2021/12/23 02:03:01;;;;;;;58.60;26.80;;;;;;;-4.94;79.02;101223.73;1727004;83;21031;-69
2021/12/23 02:05:30;;;;;;;50.43;26.43;;;;;;;-4.97;79.01;101225.75;1727301;83;21113;-69
2021/12/23 02:07:59;;;;;;;58.63;27.43;;;;;;;-4.99;79.00;101223.95;1726975;83;21023;-70
2021/12/23 02:10:28;;;;;;;53.93;26.43;;;;;;;-5.00;79.12;101211.58;1727282;83;21008;-69
2021/12/23 02:12:57;;;;;;;54.57;25.17;;;;;;;-5.00;78.99;101203.05;1726946;83;21027;-70
2021/12/23 02:15:25;;;;;;;55.77;26.67;;;;;;;-5.06;78.81;101192.17;1727390;83;20981;-70
2021/12/23 02:17:52;;;;;;;55.03;25.43;;;;;;;-5.09;78.85;101189.91;1727017;83;21142;-69
2021/12/23 02:20:30;;;;;;;46.77;24.77;;;;;;;-5.10;78.91;101188.15;1727326;83;21552;-71
2021/12/23 02:22:58;;;;;;;52.70;25.07;;;;;;;-5.11;78.98;101175.78;1722737;83;21031;-69
2021/12/23 02:25:25;;;;;;;51.40;24.97;;;;;;;-5.14;78.84;101173.52;1727236;83;21027;-70
2021/12/23 02:27:53;;;;;;;51.63;23.87;;;;;;;-5.13;78.95;101171.42;1726987;83;21000;-81
2021/12/23 02:30:25;;;;;;;47.50;23.00;;;;;;;-5.17;78.89;101169.16;1726983;83;21986;-76
2021/12/23 02:32:53;;;;;;;46.70;23.67;;;;;;;-5.17;79.02;101164.05;1726956;83;21466;-69
2021/12/23 02:35:23;;;;;;;44.33;21.73;;;;;;;-5.18;78.94;101163.59;1727332;83;21063;-77
2021/12/23 02:37:50;;;;;;;45.40;22.17;;;;;;;-5.21;78.85;101154.12;1727047;83;21275;-70
2021/12/23 02:40:34;;;;;;;46.83;23.57;;;;;;;-5.21;78.89;101157.06;1727346;83;21128;-73
2021/12/23 02:43:22;;;;;;;47.40;22.27;;;;;;;-5.25;78.81;101157.36;1724147;82;21151;-78
2021/12/23 02:45:53;;;;;;;47.30;22.27;;;;;;;-5.24;78.94;101150.55;1726972;83;22192;-79
2021/12/23 02:48:30;;;;;;;40.10;20.43;;;;;;;-5.28;78.68;101149.98;1727210;83;20931;-74
2021/12/23 02:50:58;;;;;;;43.37;21.47;;;;;;;-5.31;78.85;101148.59;1726939;83;21000;-80
2021/12/23 02:53:28;;;;;;;42.37;22.07;;;;;;;-5.31;78.93;101139.64;1726827;83;21039;-69
2021/12/23 02:55:57;;;;;;;42.97;21.37;;;;;;;-5.33;78.88;101143.41;1727085;83;21123;-69
2021/12/23 02:58:24;;;;;;;44.60;21.90;;;;;;;-5.33;78.88;101134.46;1726900;83;21003;-81
2021/12/23 03:00:55;;;;;;;46.47;22.23;;;;;;;-5.33;78.86;101129.77;1726980;83;21462;-70
2021/12/23 03:03:22;;;;;;;47.60;22.67;;;;;;;-5.33;78.87;101123.38;1727121;83;21008;-70
2021/12/23 03:05:53;;;;;;;48.37;22.57;;;;;;;-5.35;78.93;101116.05;1727267;83;21271;-69
2021/12/23 03:08:34;;;;;;;46.87;21.47;;;;;;;-5.31;79.05;101116.23;1726904;83;21562;-69
2021/12/23 03:11:03;;;;;;;48.03;22.67;;;;;;;-5.33;78.88;101114.02;1727326;83;21501;-69
2021/12/23 03:13:30;;;;;;;44.10;21.93;;;;;;;-5.30;79.16;101102.64;1726849;83;21015;-69
2021/12/23 03:15:58;;;;;;;46.83;22.57;;;;;;;-5.31;78.95;101097.08;1727339;83;21575;-69
2021/12/23 03:18:26;;;;;;;44.40;21.60;;;;;;;-5.32;78.87;101090.23;1726855;83;21062;-71
2021/12/23 03:20:53;;;;;;;47.37;22.83;;;;;;;-5.30;79.08;101088.58;1727242;83;21942;-78
2021/12/23 03:23:21;;;;;;;50.17;22.47;;;;;;;-5.25;79.34;101079.83;1726903;83;21024;-69
2021/12/23 03:25:48;;;;;;;45.10;22.00;;;;;;;-5.21;79.20;101076.17;1727353;83;20988;-69
2021/12/23 03:28:16;;;;;;;43.00;22.10;;;;;;;-5.21;79.08;101071.45;1726971;83;21517;-79
2021/12/23 03:30:43;;;;;;;45.77;22.20;;;;;;;-5.25;78.88;101065.36;1727085;83;21035;-69
2021/12/23 03:33:11;;;;;;;45.93;22.33;;;;;;;-5.25;78.90;101072.16;1702152;83;21212;-70
2021/12/23 03:35:38;;;;;;;44.63;21.93;;;;;;;-5.29;78.91;101062.62;1726946;83;21020;-72
2021/12/23 03:38:07;;;;;;;45.63;22.67;;;;;;;-5.31;78.80;101068.10;1726870;83;21531;-70
2021/12/23 03:40:34;;;;;;;49.27;22.63;;;;;;;-5.29;79.22;101063.52;1727298;83;21023;-81
2021/12/23 03:43:01;;;;;;;50.00;21.30;;;;;;;-5.18;79.38;101066.06;1727411;82;21032;-74
2021/12/23 03:45:28;;;;;;;46.57;22.27;;;;;;;-5.18;79.12;101062.23;1733313;82;21155;-81
2021/12/23 03:47:55;;;;;;;48.43;22.63;;;;;;;-5.18;79.15;101059.67;1733364;82;20939;-79
2021/12/23 03:50:25;;;;;;;50.10;23.57;;;;;;;-5.21;78.95;101059.56;1733040;82;21003;-69
2021/12/23 03:52:53;;;;;;;46.53;22.07;;;;;;;-5.23;78.96;101050.96;1733650;82;20995;-71
2021/12/23 03:55:20;;;;;;;49.63;24.40;;;;;;;-5.24;78.94;101053.06;1733130;82;21525;-72
2021/12/23 03:57:47;;;;;;;50.50;25.43;;;;;;;-5.24;79.07;101053.45;1733569;82;21081;-74
2021/12/23 04:00:19;;;;;;;52.90;25.00;;;;;;;-5.23;79.10;101048.41;1733080;82;21098;-82
2021/12/23 04:02:47;;;;;;;47.17;24.33;;;;;;;-5.16;79.28;101044.38;1733122;82;20999;-78
2021/12/23 04:05:15;;;;;;;47.03;23.37;;;;;;;-5.17;79.20;101034.56;1733158;82;21031;-82
2021/12/23 04:07:43;;;;;;;51.40;24.33;;;;;;;-5.19;79.08;101023.41;1733483;82;21015;-74
2021/12/23 04:10:15;;;;;;;52.13;24.93;;;;;;;-5.17;79.04;101013.26;1733155;82;21461;-76
2021/12/23 04:12:43;;;;;;;46.53;24.40;;;;;;;-5.19;79.03;101011.05;1733413;82;21015;-81
2021/12/23 04:15:10;;;;;;;47.63;23.13;;;;;;;-5.16;79.20;101014.58;1733153;82;21008;-70
2021/12/23 04:17:38;;;;;;;50.13;24.73;;;;;;;-5.19;79.02;101005.94;1733354;82;21043;-70
2021/12/23 04:20:18;;;;;;;49.50;24.23;;;;;;;-5.14;79.24;100998.45;1733154;82;21468;-80
2021/12/23 04:22:45;;;;;;;49.90;22.93;;;;;;;-5.18;79.08;100993.23;1733197;82;21123;-81
2021/12/23 04:25:13;;;;;;;55.27;24.03;;;;;;;-5.20;78.84;100987.18;1733119;82;20991;-69
2021/12/23 04:27:43;;;;;;;46.00;22.33;;;;;;;-5.21;79.01;100982.89;1733504;82;21078;-72
2021/12/23 04:30:12;;;;;;;47.70;22.98;;;;;;;-5.23;79.06;100978.12;1733471;82;21028;-69
2021/12/23 04:32:40;;;;;;;48.03;22.43;;;;;;;-5.19;79.30;100982.94;1733607;82;21023;-78
2021/12/23 04:35:08;;;;;;;41.93;21.73;;;;;;;-5.13;79.42;100981.00;1733446;82;21734;-81
2021/12/23 04:37:35;;;;;;;46.67;22.80;;;;;;;-5.14;79.17;100977.59;1733452;82;21464;-69
2021/12/23 04:40:06;;;;;;;48.53;22.37;;;;;;;-5.18;79.05;100971.92;1733324;82;21000;-82
2021/12/23 04:42:34;;;;;;;45.27;22.60;;;;;;;-5.20;79.08;100970.98;1733620;82;21094;-72
2021/12/23 04:45:03;;;;;;;52.23;23.40;;;;;;;-5.14;79.33;100963.53;1728666;82;21526;-70
2021/12/23 04:47:30;;;;;;;51.30;22.90;;;;;;;-5.09;79.81;100957.31;1727025;83;21283;-78
2021/12/23 04:49:57;;;;;;;51.43;23.90;;;;;;;-4.99;80.18;100963.19;1726948;83;21008;-69
2021/12/23 04:52:24;;;;;;;52.53;23.37;;;;;;;-4.90;79.92;100962.25;1727118;83;21039;-82
2021/12/23 04:54:51;;;;;;;43.97;22.00;;;;;;;-4.89;79.74;100952.47;1727030;83;21070;-69
2021/12/23 04:57:18;;;;;;;42.57;21.13;;;;;;;-4.88;79.72;100944.38;1727164;83;21510;-76
2021/12/23 04:59:45;;;;;;;47.37;22.07;;;;;;;-4.85;79.64;100949.22;1727208;83;21135;-69
2021/12/23 05:02:12;;;;;;;47.20;22.90;;;;;;;-4.84;79.77;100943.69;1727001;83;21004;-82
2021/12/23 05:04:39;;;;;;;45.50;22.70;;;;;;;-4.77;80.17;100940.50;1727181;83;21084;-73
2021/12/23 05:07:06;;;;;;;40.47;20.70;;;;;;;-4.68;80.16;100936.99;1727350;83;21522;-68
2021/12/23 05:09:33;;;;;;;47.37;21.90;;;;;;;-4.68;79.69;100935.72;1727193;83;21544;-70
2021/12/23 05:12:00;;;;;;;47.27;21.17;;;;;;;-4.71;79.71;100928.81;1727398;83;21080;-75
2021/12/23 05:14:27;;;;;;;45.70;22.10;;;;;;;-4.68;79.77;100920.38;1726983;83;20924;-69
2021/12/23 05:16:54;;;;;;;52.13;24.50;;;;;;;-4.69;79.68;100916.47;1727328;83;20936;-79
2021/12/23 05:19:21;;;;;;;53.43;23.53;;;;;;;-4.64;79.97;100911.09;1727060;83;21066;-68
2021/12/23 05:21:48;;;;;;;49.57;23.20;;;;;;;-4.59;80.08;100909.56;1727326;83;21035;-79
2021/12/23 05:24:15;;;;;;;46.10;22.43;;;;;;;-4.58;80.03;100905.76;1729350;81;21121;-73
2021/12/23 05:26:42;;;;;;;46.17;21.87;;;;;;;-4.53;80.11;100903.36;1755330;81;20985;-74
2021/12/23 05:29:11;;;;;;;42.40;22.57;;;;;;;-4.53;79.71;100900.39;1755197;81;21493;-72
2021/12/23 05:31:39;;;;;;;54.37;24.13;;;;;;;-4.60;79.49;100893.73;1755175;81;21044;-69
2021/12/23 05:34:06;;;;;;;61.27;28.30;;;;;;;-4.60;79.75;100892.08;1755102;81;21000;-83
2021/12/23 05:36:33;;;;;;;70.63;32.70;;;;;;;-4.56;79.81;100876.41;1754925;81;21121;-69
2021/12/23 05:39:00;;;;;;;96.30;39.07;;;;;;;-4.55;79.81;100873.02;1755022;81;21031;-69
2021/12/23 05:41:27;;;;;;;92.63;38.80;;;;;;;-4.56;79.71;100875.98;1755120;81;21024;-73
2021/12/23 05:43:56;;;;;;;97.03;39.17;;;;;;;-4.52;79.85;100875.28;1754905;81;21149;-78
2021/12/23 05:46:24;;;;;;;77.17;33.77;;;;;;;-4.53;79.80;100868.41;1755102;81;21167;-69
2021/12/23 05:48:52;;;;;;;99.73;37.17;;;;;;;-4.50;79.84;100865.08;1755228;81;21121;-69
2021/12/23 05:51:19;;;;;;;85.43;33.80;;;;;;;-4.51;79.69;100859.10;1755073;81;21012;-79
2021/12/23 05:53:46;;;;;;;57.77;26.50;;;;;;;-4.51;79.81;100856.54;1755243;81;21490;-70
2021/12/23 05:56:13;;;;;;;62.93;28.87;;;;;;;-4.49;79.79;100854.02;1754965;81;21066;-72
2021/12/23 05:58:40;;;;;;;68.07;27.87;;;;;;;-4.47;79.88;100848.95;1755387;81;21024;-80
2021/12/23 06:01:07;;;;;;;60.50;26.03;;;;;;;-4.38;80.16;100846.67;1755076;81;21245;-71
2021/12/23 06:03:34;;;;;;;55.63;23.63;;;;;;;-4.28;80.26;100841.02;1755249;81;20988;-78
2021/12/23 06:06:01;;;;;;;45.83;22.03;;;;;;;-4.21;80.33;100844.62;1754944;81;20933;-70
2021/12/23 06:08:28;;;;;;;46.03;22.97;;;;;;;-4.15;80.28;100839.70;1755340;81;21027;-82
2021/12/23 06:10:55;;;;;;;46.03;21.87;;;;;;;-4.09;80.20;100836.91;1755010;81;21047;-70
2021/12/23 06:13:23;;;;;;;41.60;19.77;;;;;;;-4.02;80.23;100825.55;1754754;81;21122;-68
2021/12/23 06:15:50;;;;;;;52.10;23.17;;;;;;;-3.98;79.93;100820.58;1755001;81;21023;-68
2021/12/23 06:18:17;;;;;;;130.40;53.33;;;;;;;-3.92;80.05;100816.90;1755210;81;21023;-68
2021/12/23 06:20:44;;;;;;;115.83;47.10;;;;;;;-3.86;79.99;100821.33;1754924;81;21020;-77
2021/12/23 06:23:11;;;;;;;103.20;44.30;;;;;;;-3.79;79.96;100825.81;1754387;81;21107;-74
2021/12/23 06:25:38;;;;;;;67.07;31.63;;;;;;;-3.71;79.91;100824.33;1756173;81;21125;-71
2021/12/23 06:28:05;;;;;;;60.33;29.40;;;;;;;-3.63;79.80;100820.67;1756839;81;21011;-75
2021/12/23 06:30:32;;;;;;;51.63;23.13;;;;;;;-3.61;79.69;100816.05;1757069;81;21525;-73
2021/12/23 06:32:59;;;;;;;47.33;23.33;;;;;;;-3.53;79.73;100814.12;1757003;81;21032;-70
2021/12/23 06:35:30;;;;;;;48.33;20.90;;;;;;;-3.49;79.46;100805.28;1757089;81;21033;-72
2021/12/23 06:38:04;;;;;;;46.47;21.90;;;;;;;-3.46;79.31;100797.67;1757069;81;21135;-72
2021/12/23 06:40:31;;;;;;;60.93;29.67;;;;;;;-3.40;79.42;100805.93;1757070;81;20936;-69
2021/12/23 06:42:58;;;;;;;57.83;27.90;;;;;;;-3.37;79.29;100800.45;1757098;81;21066;-70
2021/12/23 06:45:25;;;;;;;53.47;25.10;;;;;;;-3.37;78.99;100811.13;1758744;81;21052;-73
2021/12/23 06:47:52;;;;;;;46.17;22.23;;;;;;;-3.32;79.06;100811.27;1727863;83;20997;-70
2021/12/23 06:50:21;;;;;;;41.90;22.20;;;;;;;-3.24;78.99;100807.16;1759795;81;21186;-71
2021/12/23 06:52:49;;;;;;;42.03;21.03;;;;;;;-3.23;78.74;100801.23;1727644;83;20992;-70
2021/12/23 06:55:19;;;;;;;36.53;19.20;;;;;;;-3.22;78.46;100804.23;1759879;81;21005;-72
2021/12/23 06:57:53;;;;;;;39.18;19.23;;;;;;;-3.24;78.28;100792.68;1757586;81;20987;-71
2021/12/23 07:00:18;;;;;;;35.88;19.12;;;;;;;-3.21;78.38;100786.77;1757334;81;21493;-70
2021/12/23 07:02:46;;;;;;;36.13;17.73;;;;;;;-3.18;78.30;100789.41;1742884;82;21125;-70
2021/12/23 07:05:15;;;;;;;33.07;17.97;;;;;;;-3.17;78.05;100783.44;1759714;81;21087;-70
2021/12/23 07:08:09;;;;;;;40.20;20.47;;;;;;;-3.18;77.95;100781.71;1757421;81;20988;-70
2021/12/23 07:10:14;;;;;;;37.78;18.65;;;;;;;-3.15;78.03;100783.06;1756174;81;21004;-70
2021/12/23 07:12:40;;;;;;;37.17;17.63;;;;;;;-3.09;78.08;100788.76;1742981;82;21313;-71
2021/12/23 07:15:08;;;;;;;33.87;16.80;;;;;;;-3.08;78.01;100780.22;1759791;81;21928;-73
2021/12/23 07:17:35;;;;;;;65.80;30.97;;;;;;;-3.05;77.98;100775.16;1723552;83;21011;-73
2021/12/23 07:20:04;;;;;;;85.47;35.83;;;;;;;-3.02;77.79;100772.28;1743380;82;20997;-71
2021/12/23 07:22:31;;;;;;;181.53;68.57;;;;;;;-3.03;77.72;100778.22;1759798;81;21028;-71
2021/12/23 07:24:58;;;;;;;145.50;54.00;;;;;;;-2.97;77.79;100780.92;1727901;83;20997;-72
2021/12/23 07:27:25;;;;;;;59.77;23.90;;;;;;;-2.93;77.88;100777.62;1759679;81;21157;-71
2021/12/23 07:29:52;;;;;;;43.07;19.93;;;;;;;-2.90;77.49;100775.97;1727808;83;20999;-69
2021/12/23 07:32:18;;;;;;;105.27;40.90;;;;;;;-2.93;77.35;100771.20;1749986;81;20947;-71
2021/12/23 07:34:45;;;;;;;209.90;67.63;;;;;;;-2.98;77.23;100772.80;1752181;81;21019;-74
2021/12/23 07:37:12;;;;;;;74.73;27.30;;;;;;;-2.96;77.31;100767.29;1723415;83;21038;-72
2021/12/23 07:39:40;;;;;;;48.60;20.77;;;;;;;-2.96;77.21;100772.84;1756267;81;21119;-72
2021/12/23 07:42:14;;;;;;;51.80;22.60;;;;;;;-2.95;77.24;100763.88;1725949;83;21047;-73
2021/12/23 07:44:37;;;;;;;60.67;25.30;;;;;;;-2.92;77.19;100763.95;1751535;81;21182;-72
2021/12/23 07:47:05;;;;;;;73.07;32.73;;;;;;;-2.95;76.96;100751.48;1711206;81;21095;-75
2021/12/23 07:49:32;;;;;;;75.27;36.00;;;;;;;-2.93;77.20;100744.70;1741651;81;21020;-70
2021/12/23 07:51:59;;;;;;;63.43;28.17;;;;;;;-2.94;76.95;100741.66;1712236;83;21511;-72
2021/12/23 07:54:27;;;;;;;83.33;36.87;;;;;;;-2.99;77.07;100733.88;1690168;83;20936;-74
2021/12/23 07:56:56;;;;;;;86.03;40.43;;;;;;;-2.95;77.10;100733.53;1704483;84;21051;-71
2021/12/23 07:59:23;;;;;;;71.27;34.67;;;;;;;-2.91;77.23;100726.34;1704379;84;21512;-72
2021/12/23 08:01:50;;;;;;;62.13;29.47;;;;;;;-2.88;77.16;100728.11;1704641;84;21075;-71
2021/12/23 08:04:17;;;;;;;63.27;32.20;;;;;;;-2.85;77.19;100724.36;1704462;83;21139;-72
2021/12/23 08:06:47;;;;;;;52.37;27.00;;;;;;;-2.81;77.21;100732.56;1703850;84;21012;-72
2021/12/23 08:09:14;;;;;;;62.03;32.30;;;;;;;-2.82;77.04;100725.28;1715925;83;21088;-73
2021/12/23 08:11:41;;;;;;;81.73;36.40;;;;;;;-2.81;77.14;100714.60;1675723;85;20970;-73
2021/12/23 08:14:08;;;;;;;96.30;38.40;;;;;;;-2.77;77.25;100722.41;1716116;83;21528;-73
2021/12/23 08:16:35;;;;;;;76.53;45.27;;;;;;;-2.74;77.15;100721.20;1716312;83;21584;-72
2021/12/23 08:19:04;;;;;;;60.70;33.70;;;;;;;-2.70;77.21;100721.70;1716072;83;21028;-72
2021/12/23 08:21:31;;;;;;;63.43;39.43;;;;;;;-2.68;76.98;100708.05;1716485;83;21494;-73
2021/12/23 08:23:58;;;;;;;57.10;26.27;;;;;;;-2.71;76.94;100703.72;1716030;83;21004;-73
2021/12/23 08:26:28;;;;;;;65.43;35.43;;;;;;;-2.73;76.86;100707.94;1716369;81;21059;-77
2021/12/23 08:28:58;;;;;;;44.67;22.43;;;;;;;-2.75;76.78;100700.20;1721308;83;21399;-71
2021/12/23 08:31:27;;;;;;;49.73;25.43;;;;;;;-2.76;77.01;100698.48;1751771;81;21020;-74
2021/12/23 08:33:54;;;;;;;44.70;21.57;;;;;;;-2.75;76.83;100684.80;1723316;83;21060;-76
2021/12/23 08:36:21;;;;;;;39.30;18.57;;;;;;;-2.76;76.84;100687.36;1751967;81;21028;-76
2021/12/23 08:38:48;;;;;;;30.87;16.13;;;;;;;-2.75;76.94;100680.95;1723516;83;21509;-73
2021/12/23 08:41:16;;;;;;;40.60;19.30;;;;;;;-2.70;77.03;100670.38;1751931;81;21128;-73
2021/12/23 08:43:44;;;;;;;35.50;17.50;;;;;;;-2.69;77.07;100662.27;1751823;81;21072;-73
2021/12/23 08:46:12;;;;;;;39.33;17.87;;;;;;;-2.65;77.00;100656.80;1723109;83;21084;-72
2021/12/23 08:48:39;;;;;;;27.30;14.30;;;;;;;-2.63;77.04;100660.23;1751518;82;21477;-71
2021/12/23 08:51:06;;;;;;;30.63;15.23;;;;;;;-2.59;77.16;100650.08;1724737;83;21028;-73
2021/12/23 08:53:32;;;;;;;29.57;16.53;;;;;;;-2.54;77.11;100648.90;1751410;82;21119;-71
2021/12/23 08:55:59;;;;;;;37.93;20.00;;;;;;;-2.56;76.82;100642.44;1751178;82;21024;-70
2021/12/23 08:58:26;;;;;;;45.70;21.20;;;;;;;-2.50;77.02;100632.28;1751370;82;20973;-71
2021/12/23 09:00:53;;;;;;;50.60;25.10;;;;;;;-2.48;76.99;100624.63;1737176;81;21036;-75
2021/12/23 09:03:20;;;;;;;45.30;20.77;;;;;;;-2.44;77.03;100626.41;1778891;80;21075;-72
2021/12/23 09:05:47;;;;;;;32.40;16.57;;;;;;;-2.40;77.15;100624.36;1769498;80;21210;-74
2021/12/23 09:08:14;;;;;;;36.17;18.23;;;;;;;-2.34;77.18;100632.59;1760141;81;20980;-72
2021/12/23 09:10:44;;;;;;;52.00;22.90;;;;;;;-2.30;77.16;100631.80;1736022;82;21106;-74
2021/12/23 09:13:11;;;;;;;49.60;25.82;;;;;;;-2.26;77.15;100611.36;1736175;82;21023;-74
2021/12/23 09:15:38;;;;;;;51.43;26.63;;;;;;;-2.21;77.25;100601.19;1736171;82;21264;-72
2021/12/23 09:18:06;;;;;;;44.53;21.67;;;;;;;-2.16;77.20;100596.11;1735970;82;21122;-75
2021/12/23 09:20:33;;;;;;;31.23;18.10;;;;;;;-2.17;77.00;100596.53;1735932;82;21566;-72
2021/12/23 09:23:01;;;;;;;41.43;19.13;;;;;;;-2.17;77.04;100604.23;1736215;82;21019;-72
2021/12/23 09:25:33;;;;;;;35.47;18.03;;;;;;;-2.16;76.97;100600.85;1736199;82;21071;-77
2021/12/23 09:33:10;;;;;;;31.07;16.20;;;;;;;-2.12;76.90;100594.06;1736411;82;21038;-79
2021/12/23 09:35:38;;;;;;;34.83;17.93;;;;;;;-2.07;76.89;100586.88;1735879;82;21706;-74
2021/12/23 09:38:08;;;;;;;42.83;18.83;;;;;;;-2.04;76.96;100578.36;1736028;82;21067;-75
2021/12/23 09:40:36;;;;;;;35.73;17.45;;;;;;;-1.97;76.96;100584.03;1736000;82;21101;-74
2021/12/23 09:43:09;;;;;;;36.83;18.27;;;;;;;-1.87;77.11;100587.63;1736187;82;21766;-72
2021/12/23 09:45:39;;;;;;;36.23;17.60;;;;;;;-1.81;76.96;100580.02;1733723;82;21571;-71
2021/12/23 09:48:07;;;;;;;33.38;19.77;;;;;;;-1.77;76.93;100575.78;1727225;82;21008;-76
2021/12/23 09:50:39;;;;;;;38.33;19.77;;;;;;;-1.68;77.08;100570.38;1727039;83;21618;-69
2021/12/23 09:53:08;;;;;;;35.57;18.27;;;;;;;-1.64;76.73;100558.44;1726871;82;21023;-75
2021/12/23 09:55:37;;;;;;;33.67;18.10;;;;;;;-1.63;76.65;100548.62;1727225;82;21702;-77
2021/12/23 09:58:06;;;;;;;33.23;17.50;;;;;;;-1.61;76.60;100540.48;1727005;83;21051;-77
2021/12/23 10:00:37;;;;;;;35.93;20.70;;;;;;;-1.58;76.67;100531.53;1727223;83;21122;-74
2021/12/23 10:03:05;;;;;;;45.53;25.00;;;;;;;-1.52;76.75;100532.04;1704659;83;21031;-74
2021/12/23 10:05:35;;;;;;;35.20;18.63;;;;;;;-1.52;76.52;100520.08;1727456;82;21028;-71
2021/12/23 10:08:04;;;;;;;38.70;21.70;;;;;;;-1.51;76.60;100515.36;1727166;83;21928;-71
2021/12/23 10:10:37;;;;;;;43.33;21.87;;;;;;;-1.44;76.86;100508.59;1742559;82;21014;-73
2021/12/23 10:30:22;;;;;;;129.97;62.53;;;;;;;-1.14;76.69;100487.15;1728824;83;21011;-72
2021/12/23 10:33:46;;;;;;;116.20;57.73;;;;;;;-1.10;76.94;100466.60;1741124;82;21053;-77
2021/12/23 10:38:38;;;;;;;68.87;31.00;;;;;;;-0.98;76.82;100441.00;1742168;82;20932;-74
2021/12/23 10:41:19;;;;;;;60.67;28.33;;;;;;;-0.93;76.96;100437.63;1728986;83;20955;-84
2021/12/23 10:44:01;;;;;;;;;;;;;;;-0.85;77.09;100427.41;1744808;82;21071;-74
2021/12/23 10:46:38;;;;;;;43.87;26.13;;;;;;;-0.79;77.00;100422.75;1746257;81;20537;-72
2021/12/23 10:52:10;;;;;;;47.40;25.50;;;;;;;-0.76;76.93;100405.62;1724420;83;20996;-73
2021/12/23 11:00:33;;;;;;;56.33;26.60;;;;;;;-0.75;76.53;100398.75;1751452;82;21023;-71
2021/12/23 11:03:25;;;;;;;51.90;26.27;;;;;;;-0.69;76.82;100405.27;1751861;81;21109;-72
2021/12/23 11:06:27;;;;;;;44.27;23.60;;;;;;;-0.68;76.61;100397.54;1751155;82;21000;-72
2021/12/23 11:39:31;;;;;;;40.40;22.10;;;;;;;-0.30;76.56;100322.73;1725141;83;21077;-72
2021/12/23 11:42:13;;;;;;;42.00;24.72;;;;;;;-0.26;76.36;100322.73;1724654;83;21265;-75
2021/12/23 11:44:33;;;;;;;40.80;22.90;;;;;;;-0.27;76.33;100312.01;1723586;83;21145;-73
2021/12/23 11:47:10;;;;;;;45.10;23.43;;;;;;;-0.19;76.39;100299.58;1724893;83;21052;-72
2021/12/23 11:49:34;;;;;;;44.10;23.00;;;;;;;-0.14;76.50;100303.05;1724158;83;21057;-73
2021/12/23 11:52:02;;;;;;;51.73;30.43;;;;;;;-0.09;76.34;100294.91;1750829;81;21370;-79
2021/12/23 11:54:40;;;;;;;34.87;19.07;;;;;;;-0.11;76.15;100282.05;1751168;82;21072;-70
2021/12/23 11:57:22;;;;;;;40.53;22.13;;;;;;;-0.08;76.19;100276.05;1751602;81;21104;-73
2021/12/23 12:00:15;;;;;;;41.13;22.93;;;;;;;-0.05;76.26;100265.75;1751653;81;21055;-77
2021/12/23 12:02:37;;;;;;;46.70;24.57;;;;;;;-0.06;75.95;100263.58;1751061;82;21071;-80
2021/12/23 12:05:09;;;;;;;50.37;24.67;;;;;;;-0.07;76.02;100261.01;1751385;81;20950;-81
2021/12/23 12:07:41;;;;;;;56.00;28.50;;;;;;;-0.08;75.97;100255.00;1750880;81;21062;-75
2021/12/23 12:10:12;;;;;;;51.70;25.13;;;;;;;-0.02;76.20;100249.02;1750945;82;21154;-76
2021/12/23 12:13:01;;;;;;;45.47;23.07;;;;;;;0.03;76.10;100242.16;1759626;80;21543;-75
2021/12/23 12:15:43;;;;;;;44.43;23.43;;;;;;;0.02;76.10;100239.56;1724864;81;20912;-79
2021/12/23 12:18:19;;;;;;;49.77;26.70;;;;;;;0.07;76.05;100234.86;1751494;82;21002;-78
2021/12/23 12:20:52;;;;;;;48.50;24.27;;;;;;;0.07;75.87;100229.70;1751208;81;21456;-77
2021/12/23 12:23:44;;;;;;;50.80;26.27;;;;;;;0.10;75.86;100230.14;1751219;81;21149;-77
2021/12/23 12:26:25;;;;;;;48.00;24.23;;;;;;;0.16;76.03;100221.98;1751236;82;21458;-71
2021/12/23 12:28:54;;;;;;;49.73;26.40;;;;;;;0.20;75.94;100217.29;1751455;82;21035;-76
2021/12/23 12:31:26;;;;;;;44.87;24.63;;;;;;;0.23;75.93;100222.88;1724503;82;21072;-74
2021/12/23 12:34:07;;;;;;;47.87;26.67;;;;;;;0.26;75.72;100222.03;1760801;80;20989;-73